createdAt,value
2022-09-11T00:00:39.612Z,95.22
2022-09-11T00:03:23.950Z,95.04
2022-09-11T00:05:55.110Z,95.16
2022-09-11T00:08:22.942Z,94.62
2022-09-11T00:10:51.068Z,94.97
2022-09-11T00:13:27.611Z,94.99
2022-09-11T00:16:58.503Z,95.28
2022-09-11T00:19:28.982Z,95.15
2022-09-11T00:21:58.672Z,94.75
2022-09-11T00:24:26.189Z,94.85
2022-09-11T00:26:54.550Z,94.86
2022-09-11T00:29:22.376Z,93.54
2022-09-11T00:31:50.486Z,93.82
2022-09-11T00:34:18.122Z,93.73
2022-09-11T00:36:48.344Z,94.29
2022-09-11T00:39:16.023Z,95.18
2022-09-11T00:41:46.143Z,94.38
2022-09-11T00:44:50.818Z,94.40
2022-09-11T00:47:19.257Z,94.32
2022-09-11T00:49:49.970Z,94.54
2022-09-11T00:52:21.317Z,93.99
2022-09-11T00:54:53.210Z,94.56
2022-09-11T00:57:24.059Z,94.34
2022-09-11T00:59:52.939Z,93.69
2022-09-11T01:02:27.176Z,94.29
2022-09-11T01:04:55.733Z,94.46
2022-09-11T01:07:25.859Z,94.04
2022-09-11T01:09:55.183Z,93.97
2022-09-11T01:12:24.907Z,94.40
2022-09-11T01:14:55.990Z,93.94
2022-09-11T01:17:28.541Z,94.26
2022-09-11T01:20:14.424Z,94.08
2022-09-11T01:23:17.892Z,93.75
2022-09-11T01:26:00.630Z,94.16
2022-09-11T01:28:33.659Z,93.62
2022-09-11T01:31:07.454Z,93.95
2022-09-11T01:33:39.769Z,93.05
2022-09-11T01:36:10.099Z,92.83
2022-09-11T01:38:40.937Z,93.50
2022-09-11T01:41:10.656Z,93.04
2022-09-11T01:43:42.950Z,93.25
2022-09-11T01:46:10.669Z,92.15
2022-09-11T01:48:41.155Z,91.20
2022-09-11T01:51:10.242Z,91.36
2022-09-11T01:53:40.383Z,91.20
2022-09-11T01:56:11.218Z,91.57
2022-09-11T01:58:40.497Z,91.88
2022-09-11T02:01:10.668Z,91.41
2022-09-11T02:03:41.354Z,91.17
2022-09-11T02:06:11.689Z,91.52
2022-09-11T02:08:42.257Z,91.63
2022-09-11T02:11:12.267Z,91.77
2022-09-11T02:13:45.731Z,90.90
2022-09-11T02:16:19.666Z,91.11
2022-09-11T02:18:58.663Z,91.41
2022-09-11T02:21:27.695Z,92.50
2022-09-11T02:23:55.684Z,92.94
2022-09-11T02:26:25.062Z,93.00
2022-09-11T02:28:54.872Z,93.42
2022-09-11T02:31:22.805Z,93.34
2022-09-11T02:33:51.222Z,93.49
2022-09-11T02:36:35.533Z,93.10
2022-09-11T02:39:17.013Z,92.91
2022-09-11T02:41:55.248Z,91.90
2022-09-11T02:44:29.635Z,91.91
2022-09-11T02:47:07.470Z,92.78
2022-09-11T02:49:42.983Z,93.08
2022-09-11T02:52:18.359Z,91.95
2022-09-11T02:54:53.485Z,92.82
2022-09-11T02:57:26.419Z,92.41
2022-09-11T03:00:00.253Z,93.15
2022-09-11T03:02:28.681Z,93.51
2022-09-11T03:04:56.665Z,93.18
2022-09-11T03:07:25.167Z,91.61
2022-09-11T03:09:52.884Z,91.75
2022-09-11T03:12:20.331Z,92.62
2022-09-11T03:14:48.542Z,92.22
2022-09-11T03:17:17.557Z,91.83
2022-09-11T03:19:44.998Z,92.02
2022-09-11T03:22:12.584Z,92.01
2022-09-11T03:24:40.106Z,91.50
2022-09-11T03:27:07.742Z,90.83
2022-09-11T03:29:35.154Z,91.23
2022-09-11T03:32:02.912Z,91.23
2022-09-11T03:34:31.734Z,90.65
2022-09-11T03:37:00.175Z,90.47
2022-09-11T03:39:27.607Z,90.67
2022-09-11T03:41:55.181Z,90.61
2022-09-11T03:44:23.129Z,90.67
2022-09-11T03:46:50.626Z,90.55
2022-09-11T03:49:18.089Z,89.86
2022-09-11T03:51:47.757Z,89.46
2022-09-11T03:54:16.002Z,88.67
2022-09-11T03:56:43.847Z,88.98
2022-09-11T03:59:11.296Z,89.18
2022-09-11T04:01:38.803Z,88.94
2022-09-11T04:04:06.321Z,87.75
2022-09-11T04:06:33.878Z,87.99
2022-09-11T04:09:02.692Z,87.83
2022-09-11T04:11:33.309Z,87.64
2022-09-11T04:14:04.326Z,87.20
2022-09-11T04:16:32.827Z,85.89
2022-09-11T04:19:00.918Z,84.97
2022-09-11T04:21:29.035Z,85.44
2022-09-11T04:24:00.068Z,85.84
2022-09-11T04:26:30.724Z,85.97
2022-09-11T04:28:59.397Z,87.09
2022-09-11T04:31:27.620Z,87.52
2022-09-11T04:33:57.743Z,88.65
2022-09-11T04:36:26.946Z,89.91
2022-09-11T04:38:57.719Z,89.64
2022-09-11T04:41:26.138Z,90.07
2022-09-11T04:44:00.025Z,90.99
2022-09-11T04:46:30.022Z,92.23
2022-09-11T04:49:00.096Z,92.65
2022-09-11T04:51:30.045Z,92.62
2022-09-11T04:53:58.847Z,92.44
2022-09-11T04:56:28.029Z,92.68
2022-09-11T04:58:59.301Z,92.87
2022-09-11T05:01:28.809Z,93.27
2022-09-11T05:03:56.508Z,93.33
2022-09-11T05:06:24.057Z,92.93
2022-09-11T05:08:51.772Z,92.37
2022-09-11T05:11:20.900Z,92.47
2022-09-11T05:13:48.822Z,92.43
2022-09-11T05:16:18.519Z,92.25
2022-09-11T05:18:51.920Z,92.08
2022-09-11T05:21:22.385Z,92.41
2022-09-11T05:23:51.195Z,92.77
2022-09-11T05:26:19.704Z,93.23
2022-09-11T05:28:47.222Z,93.64
2022-09-11T05:31:17.747Z,93.55
2022-09-11T05:33:45.518Z,93.65
2022-09-11T05:36:14.592Z,93.98
2022-09-11T05:38:42.831Z,93.79
2022-09-11T05:41:12.505Z,93.25
2022-09-11T05:43:41.035Z,92.71
2022-09-11T05:46:11.793Z,92.65
2022-09-11T05:48:41.297Z,92.70
2022-09-11T05:51:12.797Z,91.92
2022-09-11T05:53:40.786Z,92.01
2022-09-11T05:56:09.657Z,92.08
2022-09-11T05:58:37.488Z,92.58
2022-09-11T06:01:08.214Z,92.74
2022-09-11T06:03:36.042Z,92.68
2022-09-11T06:06:06.500Z,92.39
2022-09-11T06:08:34.640Z,91.98
2022-09-11T06:11:03.315Z,92.42
2022-09-11T06:13:31.672Z,92.62
2022-09-11T06:15:59.099Z,93.12
2022-09-11T06:18:26.584Z,92.60
2022-09-11T06:20:57.707Z,92.62
2022-09-11T06:23:26.578Z,93.59
2022-09-11T06:25:54.750Z,92.74
2022-09-11T06:28:23.410Z,92.24
2022-09-11T06:30:51.257Z,92.01
2022-09-11T06:33:20.396Z,91.92
2022-09-11T06:35:58.580Z,91.61
2022-09-11T06:38:27.839Z,90.55
2022-09-11T06:40:55.669Z,91.06
2022-09-11T06:43:23.180Z,90.46
2022-09-11T06:45:50.643Z,89.93
2022-09-11T06:48:18.917Z,90.19
2022-09-11T06:50:46.618Z,88.90
2022-09-11T06:53:15.111Z,89.20
2022-09-11T06:55:43.875Z,88.97
2022-09-11T06:58:11.795Z,88.95
2022-09-11T07:00:39.359Z,88.93
2022-09-11T07:03:07.204Z,87.68
2022-09-11T07:05:34.639Z,86.82
2022-09-11T07:08:02.476Z,86.35
2022-09-11T07:10:29.951Z,85.61
2022-09-11T07:12:58.738Z,84.84
2022-09-11T07:15:26.182Z,85.02
2022-09-11T07:17:55.251Z,82.41
2022-09-11T07:20:23.189Z,81.11
2022-09-11T07:22:50.732Z,82.15
2022-09-11T07:25:18.546Z,82.67
2022-09-11T07:27:46.285Z,82.41
2022-09-11T07:30:15.315Z,81.42
2022-09-11T07:32:42.759Z,81.73
2022-09-11T07:35:10.211Z,80.79
2022-09-11T07:37:37.636Z,80.21
2022-09-11T07:40:05.942Z,80.56
2022-09-11T07:42:33.906Z,81.41
2022-09-11T07:45:01.332Z,79.45
2022-09-11T07:47:30.852Z,79.20
2022-09-11T07:49:58.303Z,80.65
2022-09-11T07:52:26.180Z,81.03
2022-09-11T07:54:55.744Z,80.25
2022-09-11T07:57:24.209Z,79.07
2022-09-11T07:59:51.657Z,78.94
2022-09-11T08:02:20.067Z,79.16
2022-09-11T08:04:49.122Z,78.10
2022-09-11T08:07:17.009Z,78.45
2022-09-11T08:09:44.452Z,78.91
2022-09-11T08:12:12.130Z,77.96
2022-09-11T08:14:39.605Z,77.86
2022-09-11T08:17:07.055Z,76.85
2022-09-11T08:19:34.529Z,76.74
2022-09-11T08:22:03.571Z,76.15
2022-09-11T08:24:31.069Z,75.70
2022-09-11T08:26:58.634Z,75.60
2022-09-11T08:29:26.186Z,74.94
2022-09-11T08:31:53.705Z,74.24
2022-09-11T08:34:22.182Z,75.86
2022-09-11T08:36:51.898Z,76.87
2022-09-11T08:39:20.726Z,77.33
2022-09-11T08:41:49.874Z,76.06
2022-09-11T08:44:21.871Z,75.35
2022-09-11T08:46:51.754Z,75.12
2022-09-11T08:49:24.524Z,75.33
2022-09-11T08:51:52.986Z,75.65
2022-09-11T08:54:27.516Z,76.74
2022-09-11T08:57:01.533Z,76.38
2022-09-11T08:59:34.921Z,75.52
2022-09-11T09:02:13.457Z,76.48
2022-09-11T09:04:56.790Z,75.61
2022-09-11T09:07:32.030Z,75.12
2022-09-11T09:10:04.801Z,73.90
2022-09-11T09:12:40.400Z,70.27
2022-09-11T09:15:17.958Z,72.19
2022-09-11T09:17:49.101Z,73.83
2022-09-11T09:20:22.485Z,72.03
2022-09-11T09:22:53.651Z,71.91
2022-09-11T09:25:23.733Z,67.33
2022-09-11T09:27:55.347Z,66.13
2022-09-11T09:30:27.215Z,66.86
2022-09-11T09:32:58.532Z,68.12
2022-09-11T09:35:39.577Z,66.09
2022-09-11T09:38:12.227Z,68.73
2022-09-11T09:40:47.006Z,67.98
2022-09-11T09:43:24.280Z,66.33
2022-09-11T09:46:02.564Z,65.37
2022-09-11T09:48:34.430Z,66.50
2022-09-11T09:51:04.005Z,65.70
2022-09-11T09:53:35.961Z,64.79
2022-09-11T09:56:05.902Z,64.14
2022-09-11T09:58:37.893Z,64.94
2022-09-11T10:01:08.171Z,63.66
2022-09-11T10:03:35.726Z,63.70
2022-09-11T10:06:03.201Z,63.22
2022-09-11T10:08:35.450Z,62.86
2022-09-11T10:11:05.699Z,62.01
2022-09-11T10:13:34.313Z,63.74
2022-09-11T10:16:03.681Z,62.63
2022-09-11T10:18:42.416Z,63.55
2022-09-11T10:21:22.442Z,61.65
2022-09-11T10:23:52.520Z,61.72
2022-09-11T10:26:25.995Z,63.94
2022-09-11T10:28:54.342Z,64.84
2022-09-11T10:31:22.687Z,65.43
2022-09-11T10:33:53.328Z,64.07
2022-09-11T10:36:24.333Z,65.32
2022-09-11T10:38:52.868Z,62.78
2022-09-11T10:41:24.881Z,61.96
2022-09-11T10:43:56.453Z,61.66
2022-09-11T10:46:28.217Z,60.80
2022-09-11T10:48:57.813Z,61.84
2022-09-11T10:51:27.261Z,63.63
2022-09-11T10:54:05.278Z,64.98
2022-09-11T10:56:40.000Z,66.13
2022-09-11T10:59:13.246Z,66.42
2022-09-11T11:01:40.886Z,68.38
2022-09-11T11:04:12.422Z,65.98
2022-09-11T11:06:53.956Z,66.08
2022-09-11T11:09:31.321Z,67.20
2022-09-11T11:12:13.768Z,68.51
2022-09-11T11:14:54.615Z,66.83
2022-09-11T11:17:25.355Z,67.10
2022-09-11T11:20:02.056Z,67.42
2022-09-11T11:22:42.208Z,67.98
2022-09-11T11:25:15.770Z,66.67
2022-09-11T11:28:00.334Z,65.84
2022-09-11T11:30:31.750Z,66.57
2022-09-11T11:33:14.582Z,67.37
2022-09-11T11:35:46.961Z,66.56
2022-09-11T11:38:18.333Z,66.72
2022-09-11T11:40:49.545Z,66.26
2022-09-11T11:43:21.751Z,66.07
2022-09-11T11:45:53.329Z,66.01
2022-09-11T11:48:26.137Z,66.46
2022-09-11T11:50:55.196Z,66.13
2022-09-11T11:53:25.584Z,66.39
2022-09-11T11:56:01.219Z,66.39
2022-09-11T11:58:40.343Z,65.08
2022-09-11T12:01:13.132Z,65.58
2022-09-11T12:03:44.906Z,66.39
2022-09-11T12:06:12.506Z,64.58
2022-09-11T12:08:44.592Z,65.51
2022-09-11T12:11:13.939Z,65.92
2022-09-11T12:13:44.890Z,65.77
2022-09-11T12:16:17.229Z,66.13
2022-09-11T12:19:04.146Z,61.59
2022-09-11T12:21:37.453Z,59.33
2022-09-11T12:24:17.771Z,59.29
2022-09-11T12:26:45.584Z,60.18
2022-09-11T12:29:49.917Z,60.58
2022-09-11T12:32:43.267Z,60.21
2022-09-11T12:35:19.313Z,59.00
2022-09-11T12:37:54.031Z,59.60
2022-09-11T12:40:26.356Z,60.22
2022-09-11T12:42:59.016Z,59.93
2022-09-11T12:45:36.210Z,60.11
2022-09-11T12:48:07.248Z,58.97
2022-09-11T12:50:35.530Z,59.38
2022-09-11T12:53:06.456Z,58.22
2022-09-11T12:55:39.639Z,57.75
2022-09-11T12:58:09.672Z,57.75
2022-09-11T13:00:39.878Z,57.87
2022-09-11T13:03:17.290Z,56.35
2022-09-11T13:05:45.657Z,57.56
2022-09-11T13:08:17.977Z,56.22
2022-09-11T13:10:46.701Z,57.07
2022-09-11T13:13:47.917Z,56.53
2022-09-11T13:16:19.501Z,57.27
2022-09-11T13:18:48.452Z,55.87
2022-09-11T13:21:20.238Z,57.38
2022-09-11T13:23:49.586Z,57.61
2022-09-11T13:26:30.314Z,56.35
2022-09-11T13:28:59.886Z,55.88
2022-09-11T13:31:33.723Z,55.84
2022-09-11T13:34:04.383Z,54.79
2022-09-11T13:36:33.220Z,54.83
2022-09-11T13:39:04.582Z,55.75
2022-09-11T13:41:34.176Z,55.17
2022-09-11T13:44:03.718Z,55.60
2022-09-11T13:46:32.447Z,56.36
2022-09-11T13:49:28.085Z,53.96
2022-09-11T13:51:56.025Z,54.65
2022-09-11T13:54:28.774Z,55.78
2022-09-11T13:57:23.991Z,56.74
2022-09-11T13:59:54.168Z,56.37
2022-09-11T14:02:46.882Z,58.26
2022-09-11T14:05:20.711Z,56.72
2022-09-11T14:07:56.509Z,56.74
2022-09-11T14:10:29.675Z,57.27
2022-09-11T14:13:03.729Z,57.31
2022-09-11T14:15:40.423Z,56.93
2022-09-11T14:18:14.664Z,56.53
2022-09-11T14:20:45.077Z,55.44
2022-09-11T14:23:17.240Z,55.43
2022-09-11T14:26:06.584Z,51.54
2022-09-11T14:28:37.252Z,53.96
2022-09-11T14:31:08.466Z,54.29
2022-09-11T14:33:36.113Z,55.26
2022-09-11T14:36:07.988Z,53.04
2022-09-11T14:38:50.460Z,52.41
2022-09-11T14:41:24.881Z,51.15
2022-09-11T14:43:53.034Z,50.98
2022-09-11T14:46:20.560Z,53.01
2022-09-11T14:48:48.143Z,52.83
2022-09-11T14:51:17.221Z,50.86
2022-09-11T14:53:45.196Z,47.92
2022-09-11T14:56:12.867Z,48.06
2022-09-11T14:58:42.252Z,49.92
2022-09-11T15:01:12.345Z,51.01
2022-09-11T15:03:40.013Z,50.73
2022-09-11T15:06:12.000Z,51.70
2022-09-11T15:08:41.907Z,51.92
2022-09-11T15:11:09.441Z,51.67
2022-09-11T15:13:37.961Z,52.92
2022-09-11T15:16:12.053Z,50.33
2022-09-11T15:18:40.768Z,51.02
2022-09-11T15:21:08.419Z,50.90
2022-09-11T15:23:36.153Z,50.76
2022-09-11T15:26:05.581Z,52.32
2022-09-11T15:28:33.335Z,52.48
2022-09-11T15:31:01.865Z,52.27
2022-09-11T15:33:30.097Z,51.20
2022-09-11T15:36:02.123Z,51.88
2022-09-11T15:38:29.813Z,51.28
2022-09-11T15:40:58.235Z,51.35
2022-09-11T15:43:35.804Z,51.73
2022-09-11T15:46:09.273Z,52.31
2022-09-11T15:48:36.879Z,52.05
2022-09-11T15:51:05.307Z,52.70
2022-09-11T15:53:33.633Z,52.97
2022-09-11T15:56:06.049Z,53.03
2022-09-11T15:58:35.361Z,54.35
2022-09-11T16:01:03.491Z,54.82
2022-09-11T16:03:31.465Z,54.96
2022-09-11T16:06:00.933Z,54.42
2022-09-11T16:08:29.198Z,55.30
2022-09-11T16:10:56.737Z,55.25
2022-09-11T16:13:25.251Z,55.42
2022-09-11T16:16:02.488Z,56.02
2022-09-11T16:18:30.722Z,56.05
2022-09-11T16:21:01.380Z,54.75
2022-09-11T16:23:34.935Z,56.29
2022-09-11T16:26:04.134Z,55.84
2022-09-11T16:28:33.842Z,57.02
2022-09-11T16:31:03.342Z,56.86
2022-09-11T16:33:31.608Z,56.81
2022-09-11T16:35:59.910Z,55.77
2022-09-11T16:38:27.757Z,56.24
2022-09-11T16:41:02.687Z,54.74
2022-09-11T16:43:31.481Z,54.84
2022-09-11T16:45:59.075Z,56.26
2022-09-11T16:48:28.137Z,56.09
2022-09-11T16:50:57.753Z,55.97
2022-09-11T16:53:27.462Z,54.94
2022-09-11T16:55:57.047Z,56.23
2022-09-11T16:58:24.804Z,56.96
2022-09-11T17:00:54.020Z,57.62
2022-09-11T17:03:22.105Z,58.49
2022-09-11T17:05:52.781Z,58.89
2022-09-11T17:08:21.347Z,60.12
2022-09-11T17:10:50.754Z,60.53
2022-09-11T17:13:19.394Z,60.78
2022-09-11T17:15:47.161Z,60.99
2022-09-11T17:18:14.771Z,61.43
2022-09-11T17:20:42.644Z,62.11
2022-09-11T17:23:12.138Z,62.87
2022-09-11T17:25:41.753Z,63.55
2022-09-11T17:28:09.357Z,64.06
2022-09-11T17:30:39.618Z,64.26
2022-09-11T17:33:07.420Z,64.80
2022-09-11T17:35:35.002Z,65.28
2022-09-11T17:38:03.677Z,65.48
2022-09-11T17:40:32.786Z,66.14
2022-09-11T17:43:01.044Z,66.71
2022-09-11T17:45:30.973Z,67.13
2022-09-11T17:47:58.745Z,66.94
2022-09-11T17:50:28.172Z,67.54
2022-09-11T17:52:56.099Z,68.30
2022-09-11T17:55:23.825Z,68.94
2022-09-11T17:57:55.828Z,69.10
2022-09-11T18:00:23.793Z,69.49
2022-09-11T18:02:56.713Z,69.99
2022-09-11T18:05:24.355Z,70.03
2022-09-11T18:07:52.095Z,70.42
2022-09-11T18:10:20.722Z,70.79
2022-09-11T18:12:50.950Z,71.19
2022-09-11T18:15:19.947Z,71.61
2022-09-11T18:17:47.957Z,71.83
2022-09-11T18:20:17.736Z,72.21
2022-09-11T18:22:45.318Z,73.05
2022-09-11T18:25:13.197Z,73.52
2022-09-11T18:27:41.121Z,73.63
2022-09-11T18:30:09.930Z,73.50
2022-09-11T18:32:39.963Z,73.82
2022-09-11T18:35:08.956Z,73.80
2022-09-11T18:37:36.693Z,73.87
2022-09-11T18:40:05.117Z,74.40
2022-09-11T18:42:32.703Z,74.58
2022-09-11T18:45:00.508Z,74.72
2022-09-11T18:47:30.571Z,75.20
2022-09-11T18:50:01.029Z,75.44
2022-09-11T18:52:30.717Z,75.45
2022-09-11T18:55:00.099Z,75.21
2022-09-11T18:57:28.600Z,75.37
2022-09-11T18:59:56.333Z,74.55
2022-09-11T19:02:23.945Z,76.59
2022-09-11T19:04:52.720Z,76.92
2022-09-11T19:07:32.323Z,77.10
2022-09-11T19:10:00.342Z,77.33
2022-09-11T19:12:28.261Z,77.32
2022-09-11T19:14:55.899Z,77.15
2022-09-11T19:17:23.710Z,77.05
2022-09-11T19:19:51.763Z,77.37
2022-09-11T19:22:22.718Z,78.31
2022-09-11T19:24:50.298Z,79.68
2022-09-11T19:27:18.026Z,79.68
2022-09-11T19:29:46.260Z,79.87
2022-09-11T19:32:14.394Z,80.70
2022-09-11T19:34:46.523Z,80.30
2022-09-11T19:37:15.181Z,80.30
2022-09-11T19:39:44.702Z,80.28
2022-09-11T19:42:12.456Z,79.98
2022-09-11T19:44:40.778Z,80.68
2022-09-11T19:47:09.000Z,80.34
2022-09-11T19:49:37.375Z,81.15
2022-09-11T19:52:05.907Z,81.70
2022-09-11T19:54:34.627Z,81.16
2022-09-11T19:57:04.676Z,81.07
2022-09-11T19:59:32.739Z,82.55
2022-09-11T20:02:00.592Z,83.08
2022-09-11T20:04:28.323Z,84.15
2022-09-11T20:06:56.034Z,84.36
2022-09-11T20:09:32.346Z,84.52
2022-09-11T20:12:01.380Z,84.39
2022-09-11T20:14:31.083Z,84.14
2022-09-11T20:17:00.604Z,83.59
2022-09-11T20:19:28.513Z,83.20
2022-09-11T20:21:56.048Z,83.39
2022-09-11T20:24:23.894Z,83.39
2022-09-11T20:26:53.534Z,83.28
2022-09-11T20:29:21.154Z,84.32
2022-09-11T20:31:51.096Z,84.52
2022-09-11T20:34:20.184Z,83.64
2022-09-11T20:36:48.439Z,83.13
2022-09-11T20:39:21.570Z,83.18
2022-09-11T20:41:49.196Z,82.56
2022-09-11T20:44:17.064Z,82.43
2022-09-11T20:46:47.347Z,80.86
2022-09-11T20:49:16.437Z,81.06
2022-09-11T20:51:44.202Z,81.25
2022-09-11T20:54:11.808Z,81.68
2022-09-11T20:56:39.592Z,82.49
2022-09-11T20:59:07.253Z,82.91
2022-09-11T21:01:35.627Z,82.85
2022-09-11T21:04:04.632Z,84.49
2022-09-11T21:06:35.542Z,85.38
2022-09-11T21:09:07.405Z,85.99
2022-09-11T21:11:36.087Z,86.09
2022-09-11T21:14:07.503Z,85.36
2022-09-11T21:16:37.101Z,84.95
2022-09-11T21:19:12.175Z,84.53
2022-09-11T21:21:41.084Z,83.98
2022-09-11T21:24:11.572Z,83.84
2022-09-11T21:26:42.801Z,84.27
2022-09-11T21:29:12.729Z,85.33
2022-09-11T21:31:40.416Z,84.92
2022-09-11T21:34:08.187Z,84.68
2022-09-11T21:36:36.946Z,84.90
2022-09-11T21:39:06.518Z,85.44
2022-09-11T21:41:34.115Z,85.24
2022-09-11T21:44:01.903Z,84.59
2022-09-11T21:46:29.493Z,84.59
2022-09-11T21:48:57.061Z,85.75
2022-09-11T21:51:24.600Z,85.83
2022-09-11T21:53:58.078Z,86.14
2022-09-11T21:56:29.408Z,86.25
2022-09-11T21:58:57.206Z,86.47
2022-09-11T22:01:27.591Z,86.21
2022-09-11T22:03:56.804Z,86.18
2022-09-11T22:06:26.517Z,86.33
2022-09-11T22:08:56.256Z,87.25
2022-09-11T22:11:25.802Z,87.80
2022-09-11T22:13:55.113Z,88.10
2022-09-11T22:16:23.293Z,88.42
2022-09-11T22:18:54.645Z,88.79
2022-09-11T22:21:24.821Z,88.47
2022-09-11T22:23:52.491Z,88.51
2022-09-11T22:26:21.155Z,89.10
2022-09-11T22:28:48.968Z,88.92
2022-09-11T22:31:22.795Z,89.68
2022-09-11T22:33:50.796Z,89.67
2022-09-11T22:36:20.934Z,89.66
2022-09-11T22:38:50.362Z,89.25
2022-09-11T22:41:18.404Z,89.46
2022-09-11T22:43:47.440Z,89.42
2022-09-11T22:46:15.308Z,89.12
2022-09-11T22:48:44.691Z,89.33
2022-09-11T22:51:12.533Z,89.64
2022-09-11T22:53:40.509Z,88.62
2022-09-11T22:56:09.373Z,88.46
2022-09-11T22:58:38.330Z,87.83
2022-09-11T23:01:07.920Z,88.33
2022-09-11T23:03:35.630Z,88.14
2022-09-11T23:06:27.953Z,88.15
2022-09-11T23:08:56.054Z,87.74
2022-09-11T23:11:23.782Z,87.70
2022-09-11T23:13:52.319Z,87.65
2022-09-11T23:16:21.280Z,87.15
2022-09-11T23:18:49.497Z,87.10
2022-09-11T23:21:18.419Z,87.58
2022-09-11T23:23:54.310Z,88.16
2022-09-11T23:26:22.476Z,88.00
2022-09-11T23:28:50.017Z,88.02
2022-09-11T23:31:20.267Z,87.97
2022-09-11T23:33:48.328Z,87.25
2022-09-11T23:36:18.133Z,86.25
2022-09-11T23:38:46.482Z,86.07
2022-09-11T23:41:14.711Z,85.86
2022-09-11T23:43:42.366Z,86.89
2022-09-11T23:46:10.203Z,87.77
2022-09-11T23:48:37.883Z,88.32
2022-09-11T23:51:07.449Z,88.51
2022-09-11T23:53:36.294Z,88.25
2022-09-11T23:56:04.266Z,88.84
2022-09-11T23:58:36.593Z,88.61
